Time;durP1;ratioP1;P1;durP2;ratioP2;P2;SDS_P1;SDS_P2;PMS_P1;PMS_P2;Temp;Humidity;BMP_temperature;BMP_pressure;BME280_temperature;BME280_humidity;BME280_pressure;Samples;Min_cycle;Max_cycle;Signal;HPM_P1;HPM_P2
2022/01/31 00:02:07;;;;;;;42.33;26.10;;;27.40;99.90;;;;;;5015486;28;20030;-68
2022/01/31 00:04:34;;;;;;;52.55;28.42;;;27.30;99.90;;;;;;5015887;28;20030;-68
2022/01/31 00:07:02;;;;;;;39.30;24.63;;;27.40;99.90;;;;;;5015793;28;20029;-72
2022/01/31 00:09:29;;;;;;;40.00;21.13;;;27.40;99.90;;;;;;5015473;28;20030;-73
2022/01/31 00:12:02;;;;;;;32.47;22.08;;;27.40;99.90;;;;;;5016903;28;20021;-71
2022/01/31 00:17:09;;;;;;;41.10;23.02;;;27.40;99.90;;;;;;5015481;28;20036;-71
2022/01/31 00:19:36;;;;;;;52.70;27.60;;;27.30;99.90;;;;;;5015526;28;20033;-71
2022/01/31 00:22:05;;;;;;;38.35;24.90;;;27.30;99.90;;;;;;5014800;28;20025;-70
2022/01/31 00:24:33;;;;;;;95.15;79.28;;;27.20;99.90;;;;;;5015731;28;20113;-71
2022/01/31 00:27:01;;;;;;;238.85;212.57;;;27.20;99.90;;;;;;5015489;28;20534;-71
2022/01/31 00:29:28;;;;;;;164.52;141.52;;;27.10;99.90;;;;;;5014360;28;20037;-71
2022/01/31 00:31:55;;;;;;;89.25;64.65;;;27.10;99.90;;;;;;5013909;28;20022;-70
2022/01/31 00:34:22;;;;;;;44.05;30.25;;;27.10;99.90;;;;;;5013967;28;20037;-71
2022/01/31 00:36:49;;;;;;;39.38;25.38;;;27.00;99.90;;;;;;5014686;28;20030;-69
2022/01/31 00:39:15;;;;;;;33.47;22.20;;;26.90;99.90;;;;;;5015197;28;20026;-70
2022/01/31 00:41:42;;;;;;;23.27;12.88;;;26.90;99.90;;;;;;5015067;28;20391;-71
2022/01/31 00:44:24;;;;;;;17.95;11.07;;;26.60;99.90;;;;;;5014880;28;20022;-71
2022/01/31 00:46:58;;;;;;;18.07;7.77;;;26.50;99.90;;;;;;5015090;28;20183;-72
2022/01/31 00:51:59;;;;;;;19.55;10.18;;;26.20;99.90;;;;;;5021700;28;20037;-72
2022/01/31 00:54:29;;;;;;;14.85;9.30;;;26.10;99.90;;;;;;5019565;28;20073;-71
2022/01/31 00:56:56;;;;;;;10.93;5.72;;;26.00;99.90;;;;;;5014669;28;20022;-71
2022/01/31 00:59:23;;;;;;;13.30;9.30;;;25.90;99.90;;;;;;5014858;28;20032;-71
2022/01/31 01:01:50;;;;;;;22.55;11.43;;;25.90;99.90;;;;;;5014404;28;20022;-71
2022/01/31 01:04:17;;;;;;;13.70;7.82;;;25.90;99.90;;;;;;5014617;28;20479;-70
2022/01/31 01:06:43;;;;;;;14.63;8.35;;;26.00;99.90;;;;;;5014662;28;20452;-71
2022/01/31 01:09:11;;;;;;;25.42;10.57;;;26.00;99.90;;;;;;5014261;28;20479;-70
2022/01/31 01:11:37;;;;;;;228.50;148.05;;;25.90;99.90;;;;;;5014555;28;20564;-71
2022/01/31 01:14:04;;;;;;;43.80;25.02;;;25.80;99.90;;;;;;5014560;28;20018;-70
2022/01/31 01:16:31;;;;;;;26.90;13.13;;;25.60;99.90;;;;;;5014385;28;20048;-70
2022/01/31 01:18:58;;;;;;;24.17;11.90;;;25.50;99.90;;;;;;5014220;28;20136;-69
2022/01/31 01:21:25;;;;;;;17.15;9.00;;;25.50;99.90;;;;;;5014359;28;20026;-71
2022/01/31 01:23:51;;;;;;;16.75;9.30;;;25.40;99.90;;;;;;5014024;28;20025;-70
2022/01/31 01:26:19;;;;;;;15.70;10.02;;;25.40;99.90;;;;;;5014000;28;20360;-69
2022/01/31 01:28:46;;;;;;;15.63;9.57;;;25.40;99.90;;;;;;5013478;28;20590;-69
2022/01/31 01:31:14;;;;;;;16.40;9.63;;;25.30;99.90;;;;;;5014548;28;20022;-69
2022/01/31 01:33:41;;;;;;;16.55;10.02;;;25.40;99.90;;;;;;5014224;28;20022;-70
2022/01/31 01:36:08;;;;;;;22.75;14.10;;;25.40;99.90;;;;;;5014542;28;20032;-69
2022/01/31 01:38:36;;;;;;;17.05;10.18;;;25.50;99.90;;;;;;5014030;28;20045;-69
2022/01/31 01:41:03;;;;;;;20.63;11.77;;;25.60;99.90;;;;;;5014272;28;20392;-70
2022/01/31 01:43:30;;;;;;;44.28;18.38;;;25.60;99.90;;;;;;5014521;28;20502;-69
2022/01/31 01:45:59;;;;;;;73.15;44.90;;;25.60;99.90;;;;;;5014298;28;20037;-69
2022/01/31 01:48:26;;;;;;;58.10;34.35;;;25.60;99.90;;;;;;5013998;28;20048;-71
2022/01/31 01:50:54;;;;;;;56.28;16.83;;;25.70;99.90;;;;;;5014318;28;20112;-70
2022/01/31 01:53:21;;;;;;;20.13;10.13;;;25.70;99.90;;;;;;5013791;28;20061;-71
2022/01/31 01:55:50;;;;;;;15.63;9.77;;;25.60;99.90;;;;;;5013458;28;20030;-69
2022/01/31 01:58:17;;;;;;;20.23;11.70;;;25.60;99.90;;;;;;5013930;28;20042;-70
2022/01/31 02:00:59;;;;;;;23.95;11.20;;;25.70;99.90;;;;;;5012382;28;20395;-72
2022/01/31 02:03:30;;;;;;;11.35;9.13;;;25.80;99.90;;;;;;5010517;28;20034;-70
2022/01/31 02:05:58;;;;;;;18.80;10.13;;;25.90;99.90;;;;;;5013385;28;20075;-71
2022/01/31 02:08:27;;;;;;;18.75;11.57;;;26.00;99.90;;;;;;5013842;28;20111;-71
2022/01/31 02:10:54;;;;;;;49.83;13.80;;;26.10;99.90;;;;;;5014071;28;20030;-71
2022/01/31 02:13:21;;;;;;;19.33;9.00;;;26.20;99.90;;;;;;5013992;28;20026;-70
2022/01/31 02:15:51;;;;;;;15.98;9.95;;;26.30;99.90;;;;;;5013219;28;20040;-71
2022/01/31 02:18:22;;;;;;;13.32;9.23;;;26.50;99.90;;;;;;5013599;28;20392;-70
2022/01/31 02:20:49;;;;;;;11.65;9.02;;;26.50;99.90;;;;;;5012707;28;20026;-71
2022/01/31 02:23:17;;;;;;;14.30;8.50;;;26.50;99.90;;;;;;5006675;28;20033;-70
2022/01/31 02:26:03;;;;;;;17.33;9.05;;;26.60;99.90;;;;;;5006680;28;20368;-71
2022/01/31 02:28:33;;;;;;;14.90;7.50;;;26.60;99.90;;;;;;5009789;28;20121;-72
2022/01/31 02:31:00;;;;;;;11.07;8.75;;;26.50;99.90;;;;;;5003310;28;20025;-71
2022/01/31 02:33:28;;;;;;;12.07;8.13;;;26.40;99.90;;;;;;5002638;28;20073;-72
2022/01/31 02:38:11;;;;;;;42.65;9.27;;;26.30;99.90;;;;;;5152436;27;20460;-69
2022/01/31 02:40:38;;;;;;;63.05;12.93;;;26.30;99.90;;;;;;5152343;27;20065;-71
2022/01/31 02:43:04;;;;;;;68.95;12.90;;;26.30;99.90;;;;;;5160620;27;20442;-70
2022/01/31 02:45:32;;;;;;;14.70;6.40;;;26.40;99.90;;;;;;5173099;27;20022;-70
2022/01/31 02:48:01;;;;;;;10.80;5.63;;;26.50;99.90;;;;;;5155242;27;20019;-71
2022/01/31 02:50:27;;;;;;;10.05;6.68;;;26.40;99.90;;;;;;5155794;27;20032;-71
2022/01/31 02:55:33;;;;;;;12.57;6.88;;;26.40;99.90;;;;;;5168545;27;20019;-71
2022/01/31 02:57:59;;;;;;;10.63;6.90;;;26.30;99.90;;;;;;5154304;27;20483;-71
2022/01/31 03:00:26;;;;;;;10.23;6.63;;;26.40;99.90;;;;;;5131256;27;20416;-71
2022/01/31 03:02:53;;;;;;;12.80;9.05;;;26.50;99.90;;;;;;5161603;27;20110;-69
2022/01/31 03:05:20;;;;;;;17.10;8.05;;;26.50;99.90;;;;;;5171166;27;20019;-70
2022/01/31 03:07:46;;;;;;;11.27;7.45;;;26.50;99.90;;;;;;5153658;27;20019;-73
2022/01/31 03:10:13;;;;;;;15.77;12.32;;;26.50;99.90;;;;;;5150995;27;20103;-70
2022/01/31 03:12:40;;;;;;;12.93;8.52;;;26.60;99.90;;;;;;5152524;27;20022;-70
2022/01/31 03:15:07;;;;;;;11.15;8.13;;;26.60;99.90;;;;;;5146732;27;20035;-71
2022/01/31 03:17:35;;;;;;;15.18;8.85;;;26.70;99.90;;;;;;5152795;27;20030;-71
2022/01/31 03:20:01;;;;;;;13.27;10.80;;;26.80;99.90;;;;;;5146064;27;20386;-72
2022/01/31 03:22:30;;;;;;;12.52;10.25;;;26.80;99.90;;;;;;5150941;27;20612;-71
2022/01/31 03:24:57;;;;;;;12.93;9.27;;;26.80;99.90;;;;;;5151439;27;20175;-71
2022/01/31 03:27:24;;;;;;;12.20;9.48;;;26.70;99.90;;;;;;5138314;27;20106;-72
2022/01/31 03:29:51;;;;;;;15.05;9.82;;;26.80;99.90;;;;;;5151597;27;20027;-71
2022/01/31 03:32:17;;;;;;;15.82;9.80;;;26.80;99.90;;;;;;5152778;27;20132;-70
2022/01/31 03:34:44;;;;;;;11.85;8.85;;;26.80;99.90;;;;;;5151454;27;20321;-71
2022/01/31 03:37:11;;;;;;;16.85;9.63;;;26.80;99.90;;;;;;5152071;27;20437;-69
2022/01/31 03:39:38;;;;;;;13.38;10.10;;;26.80;99.90;;;;;;5151628;27;20023;-70
2022/01/31 03:42:05;;;;;;;12.10;10.60;;;26.90;99.90;;;;;;5157903;27;20034;-72
2022/01/31 03:44:32;;;;;;;13.80;11.23;;;27.00;99.90;;;;;;5150037;27;20062;-70
2022/01/31 03:46:59;;;;;;;19.02;14.80;;;27.00;99.90;;;;;;5164011;27;21628;-71
2022/01/31 03:49:26;;;;;;;18.17;12.85;;;27.00;99.90;;;;;;5135322;27;20027;-69
2022/01/31 03:51:53;;;;;;;15.00;11.25;;;27.00;99.90;;;;;;5143194;27;20395;-69
2022/01/31 03:54:19;;;;;;;14.65;11.20;;;27.00;99.90;;;;;;5158052;27;20030;-68
2022/01/31 03:56:46;;;;;;;27.58;19.27;;;27.00;99.90;;;;;;5144013;27;20093;-71
2022/01/31 03:59:13;;;;;;;26.38;19.42;;;27.00;99.90;;;;;;5137085;27;20031;-70
2022/01/31 04:01:39;;;;;;;18.00;13.60;;;27.10;99.90;;;;;;5137240;27;20316;-71
2022/01/31 04:04:10;;;;;;;24.73;14.00;;;27.10;99.90;;;;;;5136529;27;20027;-72
2022/01/31 04:06:38;;;;;;;112.88;76.38;;;27.10;99.90;;;;;;5142747;27;20121;-70
2022/01/31 04:09:06;;;;;;;39.42;27.23;;;27.10;99.90;;;;;;5135321;27;20115;-70
2022/01/31 04:11:33;;;;;;;17.83;12.27;;;27.20;99.90;;;;;;5137787;27;20383;-71
2022/01/31 04:13:59;;;;;;;20.27;12.70;;;27.20;99.90;;;;;;5136675;27;20023;-71
2022/01/31 04:16:26;;;;;;;18.20;12.80;;;27.10;99.90;;;;;;5136258;27;20027;-69
2022/01/31 04:18:53;;;;;;;18.73;13.15;;;27.20;99.90;;;;;;5136959;27;20027;-68
2022/01/31 04:21:21;;;;;;;16.17;12.02;;;27.20;99.90;;;;;;5126430;27;20494;-69
2022/01/31 04:23:50;;;;;;;17.35;11.95;;;27.10;99.90;;;;;;5131618;27;20095;-68
2022/01/31 04:26:18;;;;;;;16.55;12.60;;;27.00;99.90;;;;;;5124817;27;20027;-68
2022/01/31 04:28:49;;;;;;;17.13;12.93;;;27.00;99.90;;;;;;5126703;27;20064;-68
2022/01/31 04:33:48;;;;;;;19.20;13.95;;;27.20;99.90;;;;;;5124218;27;20063;-69
2022/01/31 04:36:15;;;;;;;20.77;13.80;;;27.20;99.90;;;;;;5124724;27;20053;-70
2022/01/31 04:38:44;;;;;;;20.80;14.30;;;27.30;99.90;;;;;;5136149;27;20059;-68
2022/01/31 04:41:11;;;;;;;22.42;12.90;;;27.20;99.90;;;;;;5131795;27;20034;-66
2022/01/31 04:43:38;;;;;;;19.70;13.52;;;27.00;99.90;;;;;;5132596;27;20426;-68
2022/01/31 04:46:07;;;;;;;19.52;14.40;;;27.00;99.90;;;;;;5133956;27;20034;-70
2022/01/31 04:48:34;;;;;;;18.67;13.90;;;27.00;99.90;;;;;;5127057;27;20030;-70
2022/01/31 04:51:02;;;;;;;22.30;13.73;;;27.00;99.90;;;;;;5135708;27;20582;-70
2022/01/31 04:53:28;;;;;;;19.90;15.77;;;27.00;99.90;;;;;;5135259;27;20042;-71
2022/01/31 04:55:55;;;;;;;18.60;15.00;;;27.20;99.90;;;;;;5135552;27;20011;-70
2022/01/31 04:58:23;;;;;;;17.20;13.85;;;27.30;99.90;;;;;;5135490;27;20008;-71
2022/01/31 05:00:50;;;;;;;20.23;14.70;;;27.30;99.90;;;;;;5132846;27;20027;-71
2022/01/31 05:03:19;;;;;;;18.63;13.65;;;27.30;99.90;;;;;;5133462;27;20027;-72
2022/01/31 05:05:46;;;;;;;21.08;14.43;;;27.30;99.90;;;;;;5135252;27;20026;-70
2022/01/31 05:08:13;;;;;;;22.48;15.50;;;27.40;99.90;;;;;;5132673;27;20356;-71
2022/01/31 05:10:46;;;;;;;21.90;16.10;;;27.40;99.90;;;;;;5133119;27;20080;-69
2022/01/31 05:13:13;;;;;;;21.48;16.42;;;27.40;99.90;;;;;;5133299;27;20050;-70
2022/01/31 05:15:41;;;;;;;24.02;19.00;;;27.40;99.90;;;;;;5133734;27;20019;-71
2022/01/31 05:18:08;;;;;;;29.40;19.70;;;27.40;99.90;;;;;;5133937;27;20023;-71
2022/01/31 05:20:35;;;;;;;30.42;18.13;;;27.40;99.90;;;;;;5132310;27;20034;-71
2022/01/31 05:23:02;;;;;;;27.50;18.73;;;27.50;99.90;;;;;;5131872;27;20020;-70
2022/01/31 05:25:29;;;;;;;41.42;29.35;;;27.50;99.90;;;;;;5130447;27;20156;-72
2022/01/31 05:27:55;;;;;;;57.35;41.25;;;27.50;99.90;;;;;;5134270;27;20027;-70
2022/01/31 05:30:23;;;;;;;72.97;53.42;;;27.50;99.90;;;;;;5132225;27;20392;-70
2022/01/31 05:32:50;;;;;;;75.97;59.13;;;27.50;99.90;;;;;;5134264;27;20105;-71
2022/01/31 05:35:17;;;;;;;76.28;61.53;;;27.50;99.90;;;;;;5127476;27;20168;-71
2022/01/31 05:37:43;;;;;;;74.03;52.60;;;27.40;99.90;;;;;;5132721;27;20031;-71
2022/01/31 05:40:10;;;;;;;70.00;54.42;;;27.40;99.90;;;;;;5133058;27;20019;-72
2022/01/31 05:42:37;;;;;;;69.97;50.50;;;27.50;99.90;;;;;;5134489;27;20019;-68
2022/01/31 05:45:06;;;;;;;72.70;50.38;;;27.40;99.90;;;;;;5134480;27;20403;-69
2022/01/31 05:47:35;;;;;;;64.82;45.58;;;27.40;99.90;;;;;;5133413;27;20031;-69
2022/01/31 05:50:03;;;;;;;59.58;45.67;;;27.50;99.90;;;;;;5133329;27;20365;-68
2022/01/31 05:52:31;;;;;;;67.18;44.45;;;27.50;99.90;;;;;;5131703;27;20027;-70
2022/01/31 05:54:58;;;;;;;68.70;47.83;;;27.60;99.90;;;;;;5133448;27;20076;-72
2022/01/31 05:57:28;;;;;;;79.60;59.22;;;27.60;99.90;;;;;;5124997;27;20027;-71
2022/01/31 05:59:54;;;;;;;73.88;55.75;;;27.60;99.90;;;;;;5125011;27;20019;-68
2022/01/31 06:02:21;;;;;;;93.50;70.20;;;27.60;99.90;;;;;;5134470;27;20073;-71
2022/01/31 06:04:48;;;;;;;112.90;78.25;;;27.60;99.90;;;;;;5117278;27;20016;-69
2022/01/31 06:07:14;;;;;;;71.63;51.15;;;27.60;99.90;;;;;;5114185;28;20391;-71
2022/01/31 06:09:41;;;;;;;72.60;51.53;;;27.60;99.90;;;;;;5123849;27;20061;-70
2022/01/31 06:12:11;;;;;;;65.93;48.05;;;27.60;99.90;;;;;;5134322;27;20391;-74
2022/01/31 06:14:37;;;;;;;60.75;46.50;;;27.60;99.90;;;;;;5131505;27;20081;-70
2022/01/31 06:17:04;;;;;;;64.63;48.22;;;27.60;99.90;;;;;;5130879;27;20483;-70
2022/01/31 06:19:31;;;;;;;62.70;47.63;;;27.60;99.90;;;;;;5114078;28;20026;-70
2022/01/31 06:21:57;;;;;;;64.38;48.90;;;27.60;99.90;;;;;;5117972;27;20058;-70
2022/01/31 06:24:24;;;;;;;66.82;51.08;;;27.60;99.90;;;;;;5134086;27;20027;-70
2022/01/31 06:26:51;;;;;;;69.88;49.28;;;27.60;99.90;;;;;;5134513;27;20464;-69
2022/01/31 06:29:19;;;;;;;67.13;51.30;;;27.60;99.90;;;;;;5134085;27;20084;-68
2022/01/31 06:31:45;;;;;;;64.82;49.13;;;27.60;99.90;;;;;;5133910;27;20023;-69
2022/01/31 06:34:13;;;;;;;75.47;53.85;;;27.70;99.90;;;;;;5134042;27;20027;-69
2022/01/31 06:36:39;;;;;;;63.20;49.72;;;27.70;99.90;;;;;;5133831;27;20043;-68
2022/01/31 06:39:07;;;;;;;65.15;51.80;;;27.80;99.90;;;;;;5134115;27;20102;-72
2022/01/31 06:41:35;;;;;;;66.80;53.15;;;27.80;99.90;;;;;;5134111;27;20023;-68
2022/01/31 06:44:01;;;;;;;74.32;58.20;;;27.70;99.90;;;;;;5131120;27;20428;-70
2022/01/31 06:46:28;;;;;;;78.70;59.55;;;27.70;99.90;;;;;;5126217;27;20393;-73
2022/01/31 06:48:55;;;;;;;73.88;61.22;;;27.70;99.90;;;;;;5130319;28;20054;-69
2022/01/31 06:51:22;;;;;;;85.97;65.60;;;27.70;99.90;;;;;;5126003;22;20041;-70
2022/01/31 06:53:49;;;;;;;77.80;65.30;;;27.70;99.90;;;;;;5060866;28;20197;-71
2022/01/31 06:56:17;;;;;;;79.25;64.38;;;27.80;99.90;;;;;;5072767;28;20032;-69
2022/01/31 06:58:44;;;;;;;74.72;58.00;;;27.80;99.90;;;;;;5072719;28;20021;-71
2022/01/31 07:01:12;;;;;;;70.35;52.60;;;27.80;99.90;;;;;;5071858;28;20020;-70
2022/01/31 07:03:40;;;;;;;79.72;59.15;;;27.70;99.90;;;;;;5073035;28;20020;-70
2022/01/31 07:06:07;;;;;;;86.57;66.47;;;27.80;99.90;;;;;;5073380;28;20024;-71
2022/01/31 07:08:34;;;;;;;129.75;97.22;;;27.90;99.90;;;;;;5073316;28;20017;-72
2022/01/31 07:11:00;;;;;;;68.20;54.15;;;27.90;99.90;;;;;;5073402;28;20020;-70
2022/01/31 07:16:00;;;;;;;60.33;46.40;;;28.00;99.90;;;;;;5073027;28;20397;-72
2022/01/31 07:18:26;;;;;;;115.15;80.80;;;28.00;99.90;;;;;;5073179;28;20070;-71
2022/01/31 07:20:53;;;;;;;62.17;45.45;;;27.90;99.90;;;;;;5073061;28;20481;-69
2022/01/31 07:23:27;;;;;;;45.58;33.20;;;28.00;99.90;;;;;;5074526;28;20031;-71
2022/01/31 07:25:55;;;;;;;39.90;30.45;;;28.00;99.90;;;;;;5076963;28;20059;-70
2022/01/31 07:28:22;;;;;;;43.42;33.42;;;28.00;99.90;;;;;;5076731;28;20021;-69
2022/01/31 07:30:50;;;;;;;44.38;33.78;;;28.10;99.90;;;;;;5076572;28;20025;-68
2022/01/31 07:33:18;;;;;;;52.55;38.78;;;28.00;99.90;;;;;;5076807;28;20020;-70
2022/01/31 07:35:48;;;;;;;51.47;38.30;;;28.10;99.90;;;;;;5077033;28;20028;-71
2022/01/31 07:38:16;;;;;;;54.63;41.30;;;28.10;99.90;;;;;;5067141;28;20033;-69
2022/01/31 07:40:44;;;;;;;52.05;41.28;;;28.20;99.90;;;;;;5062892;28;20389;-72
2022/01/31 07:43:11;;;;;;;58.10;44.35;;;28.20;99.90;;;;;;5075873;28;20025;-71
2022/01/31 07:45:38;;;;;;;54.88;43.00;;;28.20;99.90;;;;;;5076932;28;20070;-70
2022/01/31 07:48:04;;;;;;;92.57;73.43;;;28.20;99.90;;;;;;5076467;28;20530;-72
2022/01/31 07:50:32;;;;;;;129.93;100.68;;;28.20;99.90;;;;;;5076160;28;20499;-72
2022/01/31 07:53:01;;;;;;;111.47;82.88;;;28.20;99.90;;;;;;5075642;28;20036;-71
2022/01/31 07:55:28;;;;;;;66.00;52.45;;;28.30;99.90;;;;;;5070104;28;20055;-70
2022/01/31 07:57:55;;;;;;;65.20;52.65;;;28.30;99.90;;;;;;5075838;28;20024;-70
2022/01/31 08:00:21;;;;;;;64.60;54.00;;;28.20;99.90;;;;;;5075510;28;20031;-70
2022/01/31 08:02:48;;;;;;;56.92;46.42;;;28.20;99.90;;;;;;5075252;28;20050;-71
2022/01/31 08:05:21;;;;;;;57.75;46.53;;;28.20;99.90;;;;;;5085957;28;20038;-72
2022/01/31 08:07:48;;;;;;;61.22;50.13;;;28.20;99.90;;;;;;5084162;28;20484;-70
2022/01/31 08:10:16;;;;;;;62.40;49.60;;;28.20;99.90;;;;;;5076173;28;20033;-70
2022/01/31 08:12:44;;;;;;;55.28;44.10;;;28.20;99.90;;;;;;5076564;28;20044;-70
2022/01/31 08:15:20;;;;;;;45.03;39.03;;;28.20;99.90;;;;;;5076438;28;20096;-73
2022/01/31 08:17:47;;;;;;;46.05;34.17;;;28.20;99.90;;;;;;5075936;28;20126;-71
2022/01/31 08:20:14;;;;;;;41.67;29.15;;;28.10;99.90;;;;;;5075987;28;20107;-71
2022/01/31 08:22:41;;;;;;;36.80;27.85;;;28.10;99.90;;;;;;5076111;28;20021;-71
2022/01/31 08:25:13;;;;;;;34.88;27.13;;;28.10;99.90;;;;;;5075820;28;20024;-71
2022/01/31 08:27:46;;;;;;;35.55;28.05;;;28.10;99.90;;;;;;5075906;28;20021;-71
2022/01/31 08:30:18;;;;;;;32.60;24.33;;;28.10;99.90;;;;;;5075979;28;20108;-70
2022/01/31 08:32:57;;;;;;;38.28;26.00;;;28.10;99.90;;;;;;5076145;28;20373;-71
2022/01/31 08:38:02;;;;;;;33.47;22.85;;;28.00;99.90;;;;;;5075587;28;20050;-70
2022/01/31 08:40:28;;;;;;;33.40;22.65;;;28.00;99.90;;;;;;5065772;28;20076;-72
2022/01/31 08:42:55;;;;;;;38.83;24.30;;;28.00;99.90;;;;;;5064503;28;20032;-72
2022/01/31 08:45:22;;;;;;;39.92;24.92;;;28.00;99.90;;;;;;5074406;28;20056;-70
2022/01/31 08:47:48;;;;;;;43.88;30.88;;;28.00;99.90;;;;;;5074148;28;20055;-72
2022/01/31 08:50:15;;;;;;;38.92;25.52;;;28.10;99.90;;;;;;5075223;28;20050;-73
2022/01/31 08:52:42;;;;;;;35.60;25.33;;;28.10;99.90;;;;;;5073192;28;20071;-72
2022/01/31 08:55:11;;;;;;;33.10;24.17;;;28.00;99.90;;;;;;5069186;28;20032;-71
2022/01/31 08:57:39;;;;;;;36.80;25.95;;;28.00;99.90;;;;;;5062598;28;20028;-72
2022/01/31 09:00:07;;;;;;;35.83;24.80;;;28.00;99.90;;;;;;5071737;28;20636;-71
2022/01/31 09:02:40;;;;;;;44.65;28.92;;;28.00;99.90;;;;;;5069442;28;20401;-70
2022/01/31 09:05:08;;;;;;;86.93;48.67;;;28.00;99.90;;;;;;5064044;28;20021;-69
2022/01/31 09:07:34;;;;;;;60.53;38.55;;;28.00;99.90;;;;;;5072748;28;20400;-71
2022/01/31 09:10:01;;;;;;;68.95;40.45;;;28.00;99.90;;;;;;5073479;28;20063;-70
2022/01/31 09:12:31;;;;;;;48.03;32.30;;;28.00;99.90;;;;;;5074036;28;20115;-70
2022/01/31 09:14:59;;;;;;;63.45;41.80;;;28.00;99.90;;;;;;5063996;28;20050;-72
2022/01/31 09:17:26;;;;;;;65.85;37.50;;;28.00;99.90;;;;;;5071996;28;20055;-72
2022/01/31 09:19:53;;;;;;;71.75;40.72;;;28.10;99.90;;;;;;5073013;28;20111;-70
2022/01/31 09:22:19;;;;;;;53.78;34.75;;;28.10;99.90;;;;;;5073220;28;20058;-71
2022/01/31 09:24:49;;;;;;;45.15;32.70;;;28.10;99.90;;;;;;5073145;28;20019;-72
2022/01/31 09:27:17;;;;;;;57.95;40.72;;;28.00;99.90;;;;;;5065918;28;20174;-71
2022/01/31 09:29:44;;;;;;;53.60;37.13;;;28.00;99.90;;;;;;5072579;28;20021;-72
2022/01/31 09:32:12;;;;;;;54.28;39.47;;;28.00;99.90;;;;;;5072382;28;20048;-71
2022/01/31 09:34:40;;;;;;;68.22;45.20;;;28.10;99.90;;;;;;5072768;28;20020;-72
2022/01/31 09:37:08;;;;;;;61.40;40.88;;;28.00;99.90;;;;;;5072662;28;20452;-71
2022/01/31 09:39:35;;;;;;;82.00;48.75;;;28.00;99.90;;;;;;5072481;28;20424;-71
2022/01/31 09:42:05;;;;;;;75.70;48.53;;;28.00;99.90;;;;;;5073007;28;20054;-69
2022/01/31 09:44:44;;;;;;;59.65;43.17;;;28.00;99.90;;;;;;5067398;28;20094;-72
2022/01/31 09:47:23;;;;;;;67.57;44.90;;;28.00;99.90;;;;;;5071871;28;20056;-71
2022/01/31 09:49:51;;;;;;;57.35;40.17;;;28.00;99.90;;;;;;5071087;28;20020;-72
2022/01/31 09:52:18;;;;;;;63.95;43.58;;;28.00;99.90;;;;;;5072488;28;20044;-71
2022/01/31 09:54:48;;;;;;;55.47;37.85;;;28.00;99.90;;;;;;5072702;28;20024;-70
2022/01/31 09:57:16;;;;;;;45.88;32.63;;;28.00;99.90;;;;;;5071160;28;20300;-72
2022/01/31 09:59:43;;;;;;;42.00;33.10;;;27.90;99.90;;;;;;5069478;28;20491;-71
2022/01/31 10:02:12;;;;;;;52.30;38.58;;;27.90;99.90;;;;;;5072515;28;20013;-71
2022/01/31 10:04:44;;;;;;;47.33;34.80;;;27.90;99.90;;;;;;5073201;28;20028;-71
2022/01/31 10:07:13;;;;;;;50.40;35.95;;;27.80;99.90;;;;;;5072801;28;20024;-70
2022/01/31 10:09:43;;;;;;;47.70;31.25;;;27.80;99.90;;;;;;5072943;28;20024;-71
2022/01/31 10:17:32;;;;;;;43.25;32.53;;;27.70;99.90;;;;;;5053056;28;20028;-72
2022/01/31 10:20:06;;;;;;;39.00;29.23;;;27.70;99.90;;;;;;5071354;28;20035;-71
2022/01/31 10:22:36;;;;;;;39.28;31.58;;;27.70;99.90;;;;;;5071469;28;20033;-74
2022/01/31 10:25:08;;;;;;;44.65;34.35;;;27.70;99.90;;;;;;5073123;28;20025;-73
2022/01/31 10:27:36;;;;;;;42.83;32.50;;;27.60;99.90;;;;;;5073221;28;20017;-74
2022/01/31 10:30:10;;;;;;;62.40;43.38;;;27.70;99.90;;;;;;5073366;28;20435;-71
2022/01/31 10:32:40;;;;;;;60.38;39.25;;;27.60;99.90;;;;;;5072418;28;20032;-73
2022/01/31 10:35:18;;;;;;;67.20;45.25;;;27.70;99.90;;;;;;5073056;28;20365;-71
2022/01/31 10:37:46;;;;;;;89.32;60.42;;;27.70;99.90;;;;;;5072997;28;20028;-71
2022/01/31 10:45:48;;;;;;;51.15;35.40;;;27.70;99.90;;;;;;5064973;28;20013;-73
2022/01/31 10:53:40;;;;;;;45.83;35.03;;;27.70;99.90;;;;;;5073500;28;20032;-68
2022/01/31 10:56:06;;;;;;;47.42;33.70;;;27.70;99.90;;;;;;5069356;28;20033;-72
2022/01/31 10:58:33;;;;;;;48.72;33.08;;;27.60;99.90;;;;;;5074906;28;20497;-72
2022/01/31 11:01:13;;;;;;;40.67;30.17;;;27.60;99.90;;;;;;5069609;28;20048;-73
2022/01/31 11:03:40;;;;;;;46.17;34.17;;;27.60;99.90;;;;;;5056829;28;20058;-70
2022/01/31 11:06:09;;;;;;;50.05;36.17;;;27.50;99.90;;;;;;5074443;28;20020;-71
2022/01/31 11:08:36;;;;;;;46.65;34.00;;;27.50;99.90;;;;;;5076456;28;20052;-69
2022/01/31 11:11:03;;;;;;;50.13;34.05;;;27.50;99.90;;;;;;5076587;28;20032;-71
2022/01/31 11:13:34;;;;;;;63.05;42.88;;;27.50;99.90;;;;;;5076062;28;20391;-72
2022/01/31 11:16:02;;;;;;;65.40;43.50;;;27.60;99.90;;;;;;5076059;28;20103;-70
2022/01/31 11:18:31;;;;;;;65.70;41.88;;;27.50;99.90;;;;;;5075585;28;20021;-71
2022/01/31 11:21:08;;;;;;;54.92;39.33;;;27.60;99.90;;;;;;5076272;28;20481;-71
2022/01/31 11:23:49;;;;;;;63.80;41.15;;;27.60;99.90;;;;;;5076288;28;20021;-73
2022/01/31 11:26:20;;;;;;;56.50;41.10;;;27.60;99.90;;;;;;5075832;28;20082;-71
2022/01/31 11:28:47;;;;;;;75.50;46.45;;;27.60;99.90;;;;;;5076107;28;20047;-71
2022/01/31 11:31:16;;;;;;;64.45;43.08;;;27.70;99.90;;;;;;5075809;28;20107;-69
2022/01/31 11:33:45;;;;;;;59.60;41.05;;;27.60;99.90;;;;;;5076331;28;20550;-68
2022/01/31 11:36:12;;;;;;;67.53;46.83;;;27.60;99.90;;;;;;5074613;28;20108;-70
2022/01/31 11:38:41;;;;;;;58.75;40.28;;;27.60;99.90;;;;;;5076343;28;20048;-70
2022/01/31 11:41:08;;;;;;;63.20;48.80;;;27.60;99.90;;;;;;5074961;28;20460;-69
2022/01/31 11:43:35;;;;;;;76.90;54.95;;;27.50;99.90;;;;;;5085407;28;20020;-70
2022/01/31 11:46:04;;;;;;;79.88;54.10;;;27.60;99.90;;;;;;5087951;28;20031;-69
2022/01/31 11:48:31;;;;;;;70.90;50.58;;;27.50;99.90;;;;;;5076082;28;20049;-69
2022/01/31 11:51:00;;;;;;;97.28;59.13;;;27.60;99.90;;;;;;5074807;28;20040;-69
2022/01/31 11:53:37;;;;;;;106.50;62.45;;;27.50;99.90;;;;;;5075894;28;20029;-70
2022/01/31 11:56:14;;;;;;;94.25;58.03;;;27.60;99.90;;;;;;5075650;28;20032;-71
2022/01/31 11:58:47;;;;;;;90.70;58.63;;;27.50;99.90;;;;;;5075403;28;20111;-69
2022/01/31 12:01:15;;;;;;;85.35;53.15;;;27.50;99.90;;;;;;5067297;28;20024;-69
2022/01/31 12:03:54;;;;;;;83.68;57.75;;;27.50;99.90;;;;;;5071730;28;20018;-69
2022/01/31 12:06:23;;;;;;;87.78;58.15;;;27.50;99.90;;;;;;5072099;28;20046;-69
2022/01/31 12:08:52;;;;;;;202.85;129.80;;;27.50;99.90;;;;;;5065750;28;20028;-70
2022/01/31 12:11:26;;;;;;;212.82;134.82;;;27.50;99.90;;;;;;5056289;28;20052;-69
2022/01/31 12:13:59;;;;;;;184.77;118.90;;;27.50;99.90;;;;;;5055745;28;20462;-68
2022/01/31 12:24:27;;;;;;;118.18;74.82;;;27.40;99.90;;;;;;5075854;28;20055;-68
2022/01/31 12:27:06;;;;;;;115.28;69.88;;;27.40;99.90;;;;;;5075738;28;20029;-67
2022/01/31 12:29:37;;;;;;;115.28;74.15;;;27.40;99.90;;;;;;5074655;28;20602;-66
2022/01/31 12:32:24;;;;;;;140.30;87.82;;;27.40;99.90;;;;;;5075384;28;20047;-67
2022/01/31 12:35:08;;;;;;;132.30;88.15;;;27.40;99.90;;;;;;5075661;28;20039;-67
2022/01/31 12:37:38;;;;;;;136.40;88.45;;;27.50;99.90;;;;;;5075350;28;20056;-67
2022/01/31 12:40:15;;;;;;;134.27;87.25;;;27.40;99.90;;;;;;5075316;28;20044;-67
2022/01/31 12:42:49;;;;;;;146.18;95.07;;;27.40;99.90;;;;;;5075665;28;20453;-67
2022/01/31 12:45:19;;;;;;;174.73;98.68;;;27.40;99.90;;;;;;5077526;28;20461;-68
2022/01/31 12:48:14;;;;;;;132.77;85.85;;;27.40;99.90;;;;;;5075427;28;20487;-69
2022/01/31 12:50:41;;;;;;;157.63;98.05;;;27.40;99.90;;;;;;5075228;28;20025;-68
2022/01/31 12:53:23;;;;;;;155.65;88.82;;;27.50;99.90;;;;;;5075265;28;20401;-67
2022/01/31 12:56:13;;;;;;;127.77;82.47;;;27.40;99.90;;;;;;5074697;28;20094;-69
2022/01/31 12:58:43;;;;;;;118.22;81.18;;;27.40;99.90;;;;;;5064226;28;20030;-68
2022/01/31 13:01:12;;;;;;;129.18;84.43;;;27.40;99.90;;;;;;5067676;28;20029;-68
2022/01/31 13:03:41;;;;;;;167.85;94.10;;;27.40;99.90;;;;;;5064828;28;20016;-69
2022/01/31 13:06:30;;;;;;;198.02;100.13;;;27.40;99.90;;;;;;5072776;28;20025;-69
2022/01/31 13:08:59;;;;;;;160.90;94.85;;;27.40;99.90;;;;;;5074257;28;20025;-68
2022/01/31 13:11:26;;;;;;;130.40;81.28;;;27.40;99.90;;;;;;5074374;28;20107;-69
2022/01/31 13:14:02;;;;;;;123.30;80.05;;;27.40;99.90;;;;;;5073861;28;20070;-68
2022/01/31 13:16:38;;;;;;;131.45;82.70;;;27.40;99.90;;;;;;5073755;28;20043;-68